createdAt,value
2023-05-14T00:02:10.552Z,13.02
2023-05-14T00:04:42.779Z,12.99
2023-05-14T00:07:14.951Z,12.95
2023-05-14T00:09:47.187Z,12.93
2023-05-14T00:12:19.336Z,12.91
2023-05-14T00:14:51.404Z,12.89
2023-05-14T00:17:23.780Z,12.86
2023-05-14T00:19:56.127Z,12.84
2023-05-14T00:22:28.462Z,12.81
2023-05-14T00:25:00.732Z,12.81
2023-05-14T00:27:33.102Z,12.83
2023-05-14T00:30:07.061Z,12.83
2023-05-14T00:32:39.291Z,12.84
2023-05-14T00:35:12.272Z,12.83
2023-05-14T00:37:44.683Z,12.85
2023-05-14T00:40:17.043Z,12.87
2023-05-14T00:42:49.330Z,12.90
2023-05-14T00:45:21.935Z,12.93
2023-05-14T00:47:54.914Z,12.95
2023-05-14T00:50:27.491Z,12.96
2023-05-14T00:52:59.630Z,12.98
2023-05-14T00:55:33.355Z,13.00
2023-05-14T00:58:08.962Z,13.01
2023-05-14T01:00:42.329Z,13.02
2023-05-14T01:03:14.826Z,13.03
2023-05-14T01:05:58.946Z,13.03
2023-05-14T01:08:41.096Z,13.03
2023-05-14T01:11:21.634Z,13.03
2023-05-14T01:14:00.209Z,13.05
2023-05-14T01:16:35.233Z,13.03
2023-05-14T01:19:11.567Z,13.03
2023-05-14T01:21:46.360Z,13.03
2023-05-14T01:24:18.714Z,13.02
2023-05-14T01:26:51.222Z,13.01
2023-05-14T01:29:27.406Z,13.00
2023-05-14T01:32:01.416Z,12.98
2023-05-14T01:34:34.291Z,12.95
2023-05-14T01:37:07.915Z,12.92
2023-05-14T01:39:41.432Z,12.92
2023-05-14T01:42:14.464Z,12.91
2023-05-14T01:44:46.801Z,12.89
2023-05-14T01:47:19.096Z,12.88
2023-05-14T01:49:51.721Z,12.85
2023-05-14T01:52:23.829Z,12.81
2023-05-14T01:54:56.090Z,12.79
2023-05-14T01:57:28.412Z,12.76
2023-05-14T02:00:00.580Z,12.73
2023-05-14T02:02:32.731Z,12.72
2023-05-14T02:05:07.013Z,12.72
2023-05-14T02:07:39.627Z,12.73
2023-05-14T02:10:13.066Z,12.72
2023-05-14T02:12:45.308Z,12.71
2023-05-14T02:15:17.434Z,12.71
2023-05-14T02:17:49.706Z,12.65
2023-05-14T02:20:22.400Z,12.68
2023-05-14T02:22:55.207Z,12.66
2023-05-14T02:25:27.499Z,12.65
2023-05-14T02:27:59.751Z,12.64
2023-05-14T02:30:32.547Z,12.60
2023-05-14T02:33:05.033Z,12.54
2023-05-14T02:35:37.477Z,12.49
2023-05-14T02:38:09.654Z,12.44
2023-05-14T02:40:41.908Z,12.39
2023-05-14T02:43:14.258Z,12.34
2023-05-14T02:45:46.618Z,12.30
2023-05-14T02:48:18.834Z,12.22
2023-05-14T02:50:52.284Z,12.13
2023-05-14T02:53:24.607Z,12.05
2023-05-14T02:55:56.825Z,11.99
2023-05-14T02:58:29.516Z,11.97
2023-05-14T03:01:01.652Z,11.95
2023-05-14T03:03:34.482Z,11.94
2023-05-14T03:06:07.746Z,11.94
2023-05-14T03:08:40.162Z,11.93
2023-05-14T03:11:12.430Z,11.91
2023-05-14T03:13:44.589Z,11.91
2023-05-14T03:16:16.924Z,11.86
2023-05-14T03:18:49.421Z,11.84
2023-05-14T03:21:21.694Z,11.82
2023-05-14T03:23:55.093Z,11.77
2023-05-14T03:26:27.159Z,11.72
2023-05-14T03:29:00.068Z,11.67
2023-05-14T03:31:32.634Z,11.64
2023-05-14T03:34:04.899Z,11.64
2023-05-14T03:36:39.047Z,11.67
2023-05-14T03:39:11.201Z,11.70
2023-05-14T03:41:43.649Z,11.75
2023-05-14T03:44:16.652Z,11.80
2023-05-14T03:46:48.844Z,11.85
2023-05-14T03:49:20.978Z,11.90
2023-05-14T03:51:53.108Z,11.95
2023-05-14T03:54:25.299Z,11.98
2023-05-14T03:56:57.532Z,12.00
2023-05-14T03:59:30.009Z,12.03
2023-05-14T04:02:02.184Z,12.06
2023-05-14T04:04:34.485Z,12.08
2023-05-14T04:07:07.105Z,12.11
2023-05-14T04:09:39.302Z,12.12
2023-05-14T04:12:12.461Z,12.15
2023-05-14T04:14:44.701Z,12.19
2023-05-14T04:17:16.954Z,12.23
2023-05-14T04:19:49.232Z,12.26
2023-05-14T04:22:21.408Z,12.31
2023-05-14T04:24:53.813Z,12.36
2023-05-14T04:27:26.073Z,12.44
2023-05-14T04:29:58.544Z,12.50
2023-05-14T04:32:31.115Z,12.56
2023-05-14T04:35:04.382Z,12.63
2023-05-14T04:37:36.704Z,12.69
2023-05-14T04:40:12.722Z,12.74
2023-05-14T04:42:45.035Z,12.79
2023-05-14T04:45:17.389Z,12.82
2023-05-14T04:47:49.611Z,12.82
2023-05-14T04:50:22.200Z,12.80
2023-05-14T04:52:56.094Z,12.86
2023-05-14T04:55:28.394Z,12.88
2023-05-14T04:58:00.571Z,12.91
2023-05-14T05:00:33.648Z,12.96
2023-05-14T05:03:07.285Z,13.01
2023-05-14T05:05:39.424Z,13.08
2023-05-14T05:08:12.575Z,13.13
2023-05-14T05:10:44.854Z,13.18
2023-05-14T05:13:17.213Z,13.24
2023-05-14T05:15:49.586Z,13.32
2023-05-14T05:18:21.861Z,13.40
2023-05-14T05:20:53.902Z,13.49
2023-05-14T05:23:26.170Z,13.51
2023-05-14T05:25:58.423Z,13.54
2023-05-14T05:28:30.692Z,13.55
2023-05-14T05:31:03.080Z,13.61
2023-05-14T05:33:35.413Z,13.68
2023-05-14T05:36:08.843Z,13.77
2023-05-14T05:38:40.994Z,13.83
2023-05-14T05:41:13.303Z,13.86
2023-05-14T05:43:45.595Z,13.91
2023-05-14T05:46:17.744Z,13.97
2023-05-14T05:48:49.942Z,14.07
2023-05-14T05:51:22.193Z,14.16
2023-05-14T05:53:54.649Z,14.23
2023-05-14T05:56:26.863Z,14.30
2023-05-14T05:58:59.373Z,14.38
2023-05-14T06:01:31.707Z,14.49
2023-05-14T06:04:05.800Z,14.63
2023-05-14T06:06:37.984Z,14.77
2023-05-14T06:09:10.380Z,14.91
2023-05-14T06:11:42.626Z,15.06
2023-05-14T06:14:14.769Z,15.19
2023-05-14T06:16:47.054Z,15.34
2023-05-14T06:19:19.463Z,15.51
2023-05-14T06:21:51.883Z,15.60
2023-05-14T06:24:24.122Z,15.73
2023-05-14T06:26:56.276Z,15.79
2023-05-14T06:29:28.635Z,15.88
2023-05-14T06:32:04.912Z,15.98
2023-05-14T06:34:36.918Z,16.10
2023-05-14T06:37:09.665Z,16.25
2023-05-14T06:39:48.256Z,16.40
2023-05-14T06:42:20.516Z,16.57
2023-05-14T06:44:52.740Z,16.78
2023-05-14T06:47:25.278Z,17.00
2023-05-14T06:49:58.879Z,17.18
2023-05-14T06:52:31.169Z,17.37
2023-05-14T06:55:03.448Z,17.51
2023-05-14T06:57:35.576Z,17.55
2023-05-14T07:00:09.880Z,17.61
2023-05-14T07:02:42.272Z,17.59
2023-05-14T07:05:14.850Z,17.52
2023-05-14T07:07:47.143Z,17.46
2023-05-14T07:10:19.529Z,17.42
2023-05-14T07:12:52.117Z,17.37
2023-05-14T07:15:24.212Z,17.40
2023-05-14T07:17:56.468Z,17.44
2023-05-14T07:20:29.023Z,17.51
2023-05-14T07:23:01.218Z,17.48
2023-05-14T07:25:33.902Z,17.51
2023-05-14T07:28:06.463Z,17.63
2023-05-14T07:30:38.818Z,17.78
2023-05-14T07:33:11.104Z,18.00
2023-05-14T07:35:43.394Z,18.21
2023-05-14T07:38:16.001Z,18.45
2023-05-14T07:40:48.403Z,18.55
2023-05-14T07:43:20.578Z,18.55
2023-05-14T07:45:52.966Z,18.59
2023-05-14T07:48:25.189Z,18.68
2023-05-14T07:50:57.714Z,18.79
2023-05-14T07:53:30.000Z,18.90
2023-05-14T07:56:02.187Z,19.07
2023-05-14T07:58:35.289Z,19.13
2023-05-14T08:01:09.255Z,19.20
2023-05-14T08:03:41.564Z,19.26
2023-05-14T08:06:13.825Z,19.28
2023-05-14T08:08:46.807Z,19.43
2023-05-14T08:11:19.631Z,19.55
2023-05-14T08:13:51.786Z,19.55
2023-05-14T08:16:26.353Z,19.54
2023-05-14T08:18:58.708Z,19.52
2023-05-14T08:21:31.725Z,19.50
2023-05-14T08:24:03.943Z,19.53
2023-05-14T08:26:36.118Z,19.56
2023-05-14T08:29:10.450Z,19.56
2023-05-14T08:31:43.659Z,19.55
2023-05-14T08:34:16.246Z,19.53
2023-05-14T08:36:48.635Z,19.59
2023-05-14T08:39:21.571Z,19.61
2023-05-14T08:41:54.849Z,19.70
2023-05-14T08:44:34.185Z,19.75
2023-05-14T08:47:06.978Z,19.84
2023-05-14T08:49:43.231Z,19.98
2023-05-14T08:52:17.458Z,20.03
2023-05-14T08:54:51.960Z,20.10
2023-05-14T08:57:26.870Z,20.27
2023-05-14T08:59:59.813Z,20.37
2023-05-14T09:02:33.908Z,20.28
2023-05-14T09:05:07.481Z,20.14
2023-05-14T09:07:40.057Z,20.03
2023-05-14T09:10:15.525Z,20.04
2023-05-14T09:12:47.651Z,20.14
2023-05-14T09:15:20.061Z,20.21
2023-05-14T09:17:53.290Z,20.28
2023-05-14T09:20:26.069Z,20.33
2023-05-14T09:23:00.145Z,20.42
2023-05-14T09:25:34.204Z,20.48
2023-05-14T09:28:11.300Z,20.57
2023-05-14T09:30:43.572Z,20.63
2023-05-14T09:33:26.848Z,20.66
2023-05-14T09:36:01.680Z,20.74
2023-05-14T09:38:34.811Z,20.78
2023-05-14T09:41:07.020Z,20.78
2023-05-14T09:43:39.385Z,20.87
2023-05-14T09:46:11.709Z,21.04
2023-05-14T09:48:44.135Z,21.24
2023-05-14T09:51:17.987Z,21.40
2023-05-14T09:53:52.239Z,21.61
2023-05-14T09:56:24.845Z,21.74
2023-05-14T09:58:57.053Z,21.78
2023-05-14T10:01:31.302Z,21.79
2023-05-14T10:04:07.955Z,21.88
2023-05-14T10:06:42.292Z,21.82
2023-05-14T10:09:18.076Z,21.80
2023-05-14T10:11:54.751Z,21.89
2023-05-14T10:14:30.532Z,21.96
2023-05-14T10:17:04.521Z,21.85
2023-05-14T10:19:40.427Z,21.64
2023-05-14T10:22:16.899Z,21.48
2023-05-14T10:24:52.463Z,21.49
2023-05-14T10:27:23.874Z,21.49
2023-05-14T10:29:57.553Z,21.47
2023-05-14T10:32:33.252Z,21.52
2023-05-14T10:35:18.718Z,21.47
2023-05-14T10:37:53.965Z,21.29
2023-05-14T10:40:26.593Z,21.11
2023-05-14T10:43:02.162Z,21.03
2023-05-14T10:45:34.428Z,21.03
2023-05-14T10:48:07.497Z,21.05
2023-05-14T10:50:39.950Z,21.08
2023-05-14T10:53:14.428Z,21.09
2023-05-14T10:55:47.438Z,21.05
2023-05-14T10:58:20.874Z,21.03
2023-05-14T11:00:58.003Z,21.03
2023-05-14T11:03:33.801Z,21.06
2023-05-14T11:06:07.619Z,21.01
2023-05-14T11:08:40.513Z,20.89
2023-05-14T11:11:13.839Z,20.89
2023-05-14T11:13:47.333Z,20.95
2023-05-14T11:16:23.341Z,20.97
2023-05-14T11:19:05.504Z,20.99
2023-05-14T11:21:37.797Z,20.98
2023-05-14T11:24:10.917Z,21.01
2023-05-14T11:26:43.422Z,21.01
2023-05-14T11:29:15.669Z,20.98
2023-05-14T11:31:48.017Z,20.88
2023-05-14T11:34:20.244Z,20.81
2023-05-14T11:36:52.349Z,20.84
2023-05-14T11:39:24.573Z,20.82
2023-05-14T11:41:56.916Z,20.80
2023-05-14T11:44:29.531Z,20.86
2023-05-14T11:47:02.603Z,20.89
2023-05-14T11:49:36.120Z,20.94
2023-05-14T11:52:10.281Z,20.98
2023-05-14T11:54:43.867Z,20.95
2023-05-14T11:57:17.802Z,20.92
2023-05-14T11:59:56.868Z,20.94
2023-05-14T12:02:30.559Z,21.00
2023-05-14T12:05:03.438Z,21.06
2023-05-14T12:07:39.007Z,21.11
2023-05-14T12:10:10.396Z,21.15
2023-05-14T12:12:46.202Z,21.13
2023-05-14T12:15:20.177Z,21.06
2023-05-14T12:17:55.807Z,21.06
2023-05-14T12:20:26.516Z,21.10
2023-05-14T12:22:58.877Z,21.09
2023-05-14T12:25:32.321Z,21.10
2023-05-14T12:28:14.569Z,21.10
2023-05-14T12:30:47.208Z,21.07
2023-05-14T12:33:22.805Z,21.01
2023-05-14T12:35:53.770Z,21.02
2023-05-14T12:38:26.000Z,21.06
2023-05-14T12:40:58.343Z,21.11
2023-05-14T12:43:32.458Z,21.20
2023-05-14T12:46:04.732Z,21.18
2023-05-14T12:48:37.193Z,21.15
2023-05-14T12:51:09.513Z,21.11
2023-05-14T12:53:41.902Z,21.12
2023-05-14T12:56:15.181Z,21.16
2023-05-14T12:58:47.874Z,21.24
2023-05-14T13:01:20.071Z,21.29
2023-05-14T13:03:52.361Z,21.35
2023-05-14T13:06:24.658Z,21.38
2023-05-14T13:09:00.016Z,21.39
2023-05-14T13:11:32.358Z,21.45
2023-05-14T13:14:05.064Z,21.40
2023-05-14T13:16:37.513Z,21.31
2023-05-14T13:19:09.899Z,21.21
2023-05-14T13:21:42.367Z,21.15
2023-05-14T13:24:14.421Z,21.12
2023-05-14T13:26:46.756Z,21.16
2023-05-14T13:29:18.980Z,21.20
2023-05-14T13:31:51.226Z,21.17
2023-05-14T13:34:23.967Z,21.15
2023-05-14T13:36:56.160Z,21.14
2023-05-14T13:39:28.434Z,21.15
2023-05-14T13:42:01.146Z,21.15
2023-05-14T13:44:33.337Z,21.10
2023-05-14T13:47:05.912Z,21.06
2023-05-14T13:49:38.321Z,20.99
2023-05-14T13:52:10.773Z,20.95
2023-05-14T13:54:43.230Z,20.93
2023-05-14T13:57:15.602Z,20.95
2023-05-14T13:59:48.965Z,20.95
2023-05-14T14:02:21.117Z,20.97
2023-05-14T14:04:53.304Z,21.00
2023-05-14T14:07:25.568Z,20.94
2023-05-14T14:09:57.786Z,20.90
2023-05-14T14:12:30.322Z,20.87
2023-05-14T14:15:03.836Z,20.89
2023-05-14T14:17:36.887Z,20.90
2023-05-14T14:20:10.897Z,20.86
2023-05-14T14:22:44.211Z,20.79
2023-05-14T14:25:16.675Z,20.74
2023-05-14T14:27:49.355Z,20.69
2023-05-14T14:30:21.779Z,20.66
2023-05-14T14:32:54.110Z,20.64
2023-05-14T14:35:26.768Z,20.60
2023-05-14T14:37:59.292Z,20.59
2023-05-14T14:40:31.516Z,20.60
2023-05-14T14:43:03.778Z,20.61
2023-05-14T14:45:36.296Z,20.60
2023-05-14T14:48:28.927Z,20.60
2023-05-14T14:51:02.299Z,20.58
2023-05-14T14:53:34.950Z,20.57
2023-05-14T14:56:07.798Z,20.54
2023-05-14T14:58:40.053Z,20.49
2023-05-14T15:01:12.321Z,20.43
2023-05-14T15:03:45.691Z,20.37
2023-05-14T15:06:17.991Z,20.34
2023-05-14T15:08:50.139Z,20.34
2023-05-14T15:11:22.494Z,20.33
2023-05-14T15:13:55.131Z,20.32
2023-05-14T15:16:27.415Z,20.31
2023-05-14T15:18:59.636Z,20.28
2023-05-14T15:21:32.018Z,20.25
2023-05-14T15:24:06.256Z,20.25
2023-05-14T15:26:38.617Z,20.23
2023-05-14T15:29:10.759Z,20.21
2023-05-14T15:31:43.095Z,20.18
2023-05-14T15:34:15.365Z,20.15
2023-05-14T15:36:47.688Z,20.13
2023-05-14T15:39:20.119Z,20.09
2023-05-14T15:41:52.339Z,20.06
2023-05-14T15:44:24.498Z,20.01
2023-05-14T15:46:56.814Z,19.99
2023-05-14T15:49:29.163Z,20.00
2023-05-14T15:52:03.074Z,19.99
2023-05-14T15:54:34.889Z,19.93
2023-05-14T15:57:07.760Z,19.89
2023-05-14T15:59:40.057Z,19.88
2023-05-14T16:02:12.369Z,19.86
2023-05-14T16:04:45.397Z,19.85
2023-05-14T16:07:17.534Z,19.84
2023-05-14T16:09:49.799Z,19.82
2023-05-14T16:12:21.808Z,19.79
2023-05-14T16:14:54.094Z,19.78
2023-05-14T16:17:28.003Z,19.74
2023-05-14T16:20:00.296Z,19.72
2023-05-14T16:22:34.759Z,19.69
2023-05-14T16:25:07.711Z,19.65
2023-05-14T16:27:39.940Z,19.61
2023-05-14T16:30:13.421Z,19.58
2023-05-14T16:32:48.639Z,19.57
2023-05-14T16:35:21.329Z,19.52
2023-05-14T16:37:54.537Z,19.54
2023-05-14T16:40:26.831Z,19.50
2023-05-14T16:42:58.981Z,19.42
2023-05-14T16:45:32.697Z,19.42
2023-05-14T16:48:05.104Z,19.39
2023-05-14T16:50:37.413Z,19.37
2023-05-14T16:53:09.670Z,19.34
2023-05-14T16:55:41.967Z,19.33
2023-05-14T16:58:14.304Z,19.31
2023-05-14T17:00:46.542Z,19.29
2023-05-14T17:03:18.925Z,19.23
2023-05-14T17:05:51.727Z,19.21
2023-05-14T17:08:23.988Z,19.18
2023-05-14T17:10:56.347Z,19.14
2023-05-14T17:13:27.306Z,19.11
2023-05-14T17:16:17.283Z,19.06
2023-05-14T17:18:49.152Z,19.00
2023-05-14T17:21:21.457Z,18.95
2023-05-14T17:23:53.793Z,18.91
2023-05-14T17:26:26.552Z,18.86
2023-05-14T17:28:58.909Z,18.83
2023-05-14T17:31:31.418Z,18.79
2023-05-14T17:34:03.637Z,18.75
2023-05-14T17:36:36.001Z,18.71
2023-05-14T17:39:08.289Z,18.67
2023-05-14T17:41:42.122Z,18.62
2023-05-14T17:44:14.285Z,18.56
2023-05-14T17:46:46.715Z,18.51
2023-05-14T17:49:19.203Z,18.48
2023-05-14T17:51:51.518Z,18.46
2023-05-14T17:54:23.726Z,18.44
2023-05-14T17:56:56.296Z,18.41
2023-05-14T17:59:28.633Z,18.40
2023-05-14T18:02:01.014Z,18.38
2023-05-14T18:04:33.160Z,18.36
2023-05-14T18:07:05.525Z,18.33
2023-05-14T18:09:37.716Z,18.28
2023-05-14T18:12:11.554Z,18.25
2023-05-14T18:14:45.585Z,18.20
2023-05-14T18:17:18.475Z,18.14
2023-05-14T18:19:50.673Z,18.05
2023-05-14T18:22:23.502Z,17.99
2023-05-14T18:24:57.901Z,18.00
2023-05-14T18:27:30.187Z,17.97
2023-05-14T18:30:03.140Z,17.93
2023-05-14T18:32:35.492Z,17.90
2023-05-14T18:35:08.555Z,17.85
2023-05-14T18:37:41.255Z,17.80
2023-05-14T18:40:17.734Z,17.76
2023-05-14T18:42:50.834Z,17.73
2023-05-14T18:45:24.380Z,17.69
2023-05-14T18:47:57.865Z,17.65
2023-05-14T18:50:30.750Z,17.61
2023-05-14T18:53:02.988Z,17.56
2023-05-14T18:55:36.064Z,17.50
2023-05-14T18:58:09.232Z,17.45
2023-05-14T19:00:41.485Z,17.40
2023-05-14T19:03:14.050Z,17.32
2023-05-14T19:05:47.178Z,17.28
2023-05-14T19:08:19.920Z,17.22
2023-05-14T19:10:53.009Z,17.21
2023-05-14T19:13:25.322Z,17.13
2023-05-14T19:15:58.006Z,17.15
2023-05-14T19:18:30.360Z,17.12
2023-05-14T19:21:02.885Z,17.08
2023-05-14T19:23:35.111Z,17.03
2023-05-14T19:26:07.812Z,16.99
2023-05-14T19:28:40.166Z,16.95
2023-05-14T19:31:12.429Z,16.89
2023-05-14T19:33:44.957Z,16.86
2023-05-14T19:36:17.110Z,16.83
2023-05-14T19:38:49.369Z,16.77
2023-05-14T19:41:21.731Z,16.71
2023-05-14T19:43:53.769Z,16.65
2023-05-14T19:46:25.985Z,16.62
2023-05-14T19:48:58.165Z,16.57
2023-05-14T19:51:30.656Z,16.53
2023-05-14T19:54:02.935Z,16.49
2023-05-14T19:56:35.236Z,16.43
2023-05-14T19:59:07.666Z,16.37
2023-05-14T20:01:39.914Z,16.32
2023-05-14T20:04:14.040Z,16.28
2023-05-14T20:06:47.241Z,16.24
2023-05-14T20:09:20.152Z,16.18
2023-05-14T20:11:52.395Z,16.13
2023-05-14T20:14:24.588Z,16.07
2023-05-14T20:16:58.183Z,16.00
2023-05-14T20:19:31.080Z,15.94
2023-05-14T20:22:03.360Z,15.89
2023-05-14T20:24:35.637Z,15.84
2023-05-14T20:27:10.181Z,15.78
2023-05-14T20:29:42.370Z,15.74
2023-05-14T20:32:15.057Z,15.68
2023-05-14T20:34:47.313Z,15.64
2023-05-14T20:37:19.880Z,15.60
2023-05-14T20:39:53.193Z,15.56
2023-05-14T20:42:25.670Z,15.51
2023-05-14T20:44:58.275Z,15.46
2023-05-14T20:47:32.076Z,15.40
2023-05-14T20:50:04.782Z,15.33
2023-05-14T20:52:37.087Z,15.28
2023-05-14T20:55:10.885Z,15.23
2023-05-14T20:57:43.584Z,15.17
2023-05-14T21:00:17.867Z,15.11
2023-05-14T21:02:50.321Z,15.07
2023-05-14T21:05:23.066Z,15.04
2023-05-14T21:07:55.813Z,14.99
2023-05-14T21:10:28.315Z,14.95
2023-05-14T21:13:00.496Z,14.92
2023-05-14T21:15:32.845Z,14.86
2023-05-14T21:18:05.215Z,14.86
2023-05-14T21:20:37.398Z,14.81
2023-05-14T21:23:09.846Z,14.78
2023-05-14T21:25:41.920Z,14.77
2023-05-14T21:28:14.165Z,14.75
2023-05-14T21:30:46.373Z,14.74
2023-05-14T21:33:18.986Z,14.71
2023-05-14T21:35:51.145Z,14.69
2023-05-14T21:38:23.558Z,14.67
2023-05-14T21:40:55.669Z,14.64
2023-05-14T21:43:27.874Z,14.63
2023-05-14T21:46:00.218Z,14.60
2023-05-14T21:48:32.496Z,14.58
2023-05-14T21:51:06.471Z,14.52
2023-05-14T21:53:38.499Z,14.50
2023-05-14T21:56:10.909Z,14.45
2023-05-14T21:58:43.148Z,14.40
2023-05-14T22:01:15.545Z,14.34
2023-05-14T22:03:47.903Z,14.27
2023-05-14T22:06:20.272Z,14.21
2023-05-14T22:08:52.569Z,14.18
2023-05-14T22:11:24.697Z,14.14
2023-05-14T22:13:56.932Z,14.11
2023-05-14T22:16:29.274Z,14.10
2023-05-14T22:19:01.482Z,14.08
2023-05-14T22:21:33.994Z,14.05
2023-05-14T22:24:07.190Z,14.04
2023-05-14T22:26:39.504Z,14.02
2023-05-14T22:29:11.778Z,14.01
2023-05-14T22:31:44.362Z,13.98
2023-05-14T22:34:16.685Z,13.96
2023-05-14T22:36:48.987Z,13.93
2023-05-14T22:39:21.146Z,13.93
2023-05-14T22:41:55.253Z,13.93
2023-05-14T22:44:29.888Z,13.94
2023-05-14T22:47:02.528Z,13.93
2023-05-14T22:49:34.773Z,13.91
2023-05-14T22:52:08.076Z,13.90
2023-05-14T22:54:40.352Z,13.89
2023-05-14T22:57:12.575Z,13.88
2023-05-14T22:59:44.736Z,13.85
2023-05-14T23:02:17.082Z,13.82
2023-05-14T23:04:49.576Z,13.77
2023-05-14T23:07:21.929Z,13.72
2023-05-14T23:09:54.192Z,13.69
2023-05-14T23:12:26.458Z,13.69
2023-05-14T23:14:59.283Z,13.67
2023-05-14T23:17:31.463Z,13.62
2023-05-14T23:20:06.146Z,13.62
2023-05-14T23:22:38.343Z,13.57
2023-05-14T23:25:11.700Z,13.60
2023-05-14T23:27:44.061Z,13.58
2023-05-14T23:30:16.823Z,13.56
2023-05-14T23:32:49.202Z,13.55
2023-05-14T23:35:21.754Z,13.54
2023-05-14T23:37:55.487Z,13.54
2023-05-14T23:40:27.927Z,13.55
2023-05-14T23:43:00.635Z,13.54
2023-05-14T23:45:32.941Z,13.54
2023-05-14T23:48:05.573Z,13.51
2023-05-14T23:50:38.229Z,13.49
2023-05-14T23:53:10.469Z,13.48
2023-05-14T23:55:42.768Z,13.46
2023-05-14T23:58:15.042Z,13.45
